createdAt,value
2019-05-13T00:00:33.917Z,0.00
2019-05-13T00:01:31.316Z,0.00
2019-05-13T00:02:31.315Z,0.00
2019-05-13T00:03:33.390Z,0.00
2019-05-13T00:04:33.146Z,0.00
2019-05-13T00:05:33.705Z,0.00
2019-05-13T00:06:31.284Z,0.00
2019-05-13T00:07:31.258Z,0.00
2019-05-13T00:08:33.621Z,0.00
2019-05-13T00:09:33.735Z,0.00
2019-05-13T00:10:31.230Z,0.00
2019-05-13T00:11:31.219Z,0.00
2019-05-13T00:12:31.186Z,0.00
2019-05-13T00:13:31.190Z,0.00
2019-05-13T00:14:31.159Z,0.00
2019-05-13T00:15:33.706Z,0.00
2019-05-13T00:16:31.157Z,0.00
2019-05-13T00:17:31.131Z,0.00
2019-05-13T00:18:31.129Z,0.00
2019-05-13T00:19:31.115Z,0.00
2019-05-13T00:20:33.516Z,0.00
2019-05-13T00:21:31.099Z,0.00
2019-05-13T00:22:31.085Z,0.00
2019-05-13T00:23:31.072Z,0.00
2019-05-13T00:24:33.679Z,0.00
2019-05-13T00:25:33.579Z,0.00
2019-05-13T00:26:33.610Z,0.00
2019-05-13T00:27:31.021Z,0.00
2019-05-13T00:28:31.019Z,0.00
2019-05-13T00:29:31.029Z,0.00
2019-05-13T00:30:31.010Z,0.00
2019-05-13T00:31:33.206Z,0.00
2019-05-13T00:32:30.983Z,0.00
2019-05-13T00:33:30.964Z,0.00
2019-05-13T00:34:30.958Z,0.00
2019-05-13T00:35:30.949Z,0.00
2019-05-13T00:36:30.957Z,0.00
2019-05-13T00:37:33.283Z,0.00
2019-05-13T00:38:30.906Z,0.00
2019-05-13T00:39:33.413Z,0.00
2019-05-13T00:40:33.426Z,0.00
2019-05-13T00:41:30.912Z,0.00
2019-05-13T00:42:33.332Z,0.00
2019-05-13T00:43:30.856Z,0.00
2019-05-13T00:44:30.840Z,0.00
2019-05-13T00:45:30.844Z,0.00
2019-05-13T00:46:30.816Z,0.00
2019-05-13T00:47:30.828Z,0.00
2019-05-13T00:48:30.800Z,0.00
2019-05-13T00:49:30.794Z,0.00
2019-05-13T00:50:30.784Z,0.00
2019-05-13T00:51:30.764Z,0.00
2019-05-13T00:52:30.796Z,0.00
2019-05-13T00:53:30.756Z,0.00
2019-05-13T00:54:30.770Z,0.00
2019-05-13T00:55:30.731Z,0.00
2019-05-13T00:56:30.714Z,0.00
2019-05-13T00:57:30.742Z,0.00
2019-05-13T00:58:30.703Z,0.00
2019-05-13T00:59:30.706Z,0.00
2019-05-13T01:00:30.709Z,0.00
2019-05-13T01:01:30.659Z,0.00
2019-05-13T01:02:30.673Z,0.00
2019-05-13T01:03:30.639Z,0.00
2019-05-13T01:04:30.635Z,0.00
2019-05-13T01:05:30.636Z,0.00
2019-05-13T01:06:30.620Z,0.00
2019-05-13T01:07:30.659Z,0.00
2019-05-13T01:08:30.593Z,0.00
2019-05-13T01:09:30.575Z,0.00
2019-05-13T01:10:30.574Z,0.00
2019-05-13T01:11:30.580Z,0.00
2019-05-13T01:12:30.574Z,0.00
2019-05-13T01:13:30.536Z,0.00
2019-05-13T01:14:30.534Z,0.00
2019-05-13T01:15:30.535Z,0.00
2019-05-13T01:16:30.514Z,0.00
2019-05-13T01:17:30.519Z,0.00
2019-05-13T01:18:30.485Z,0.00
2019-05-13T01:19:30.568Z,0.00
2019-05-13T01:20:30.470Z,0.00
2019-05-13T01:21:30.455Z,0.00
2019-05-13T01:22:30.463Z,0.00
2019-05-13T01:23:30.435Z,0.00
2019-05-13T01:24:30.442Z,0.00
2019-05-13T01:25:30.429Z,0.00
2019-05-13T01:26:30.390Z,0.00
2019-05-13T01:27:30.410Z,0.00
2019-05-13T01:28:30.385Z,0.00
2019-05-13T01:29:30.368Z,0.00
2019-05-13T01:30:30.363Z,0.00
2019-05-13T01:31:30.346Z,0.00
2019-05-13T01:32:30.354Z,0.00
2019-05-13T01:33:30.322Z,0.00
2019-05-13T01:34:30.323Z,0.00
2019-05-13T01:35:30.301Z,0.00
2019-05-13T01:36:30.290Z,0.00
2019-05-13T01:37:40.022Z,0.00
2019-05-13T01:38:31.273Z,0.00
2019-05-13T01:39:30.265Z,0.00
2019-05-13T01:40:30.260Z,0.00
2019-05-13T01:41:30.233Z,0.00
2019-05-13T01:42:30.285Z,0.00
2019-05-13T01:43:30.220Z,0.00
2019-05-13T01:44:30.215Z,0.00
2019-05-13T01:45:30.204Z,0.00
2019-05-13T01:46:30.187Z,0.00
2019-05-13T01:47:30.215Z,0.00
2019-05-13T01:48:30.160Z,0.00
2019-05-13T01:49:30.152Z,0.00
2019-05-13T01:50:30.144Z,0.00
2019-05-13T01:51:30.169Z,0.00
2019-05-13T01:52:30.129Z,0.00
2019-05-13T01:53:30.189Z,0.00
2019-05-13T01:54:30.096Z,0.00
2019-05-13T01:55:30.095Z,0.00
2019-05-13T01:56:30.079Z,0.00
2019-05-13T01:57:30.066Z,0.00
2019-05-13T01:58:30.134Z,0.00
2019-05-13T01:59:30.046Z,0.00
2019-05-13T02:00:30.037Z,0.00
2019-05-13T02:01:30.023Z,0.00
2019-05-13T02:02:30.024Z,0.00
2019-05-13T02:03:30.092Z,0.00
2019-05-13T02:04:30.000Z,0.00
2019-05-13T02:05:29.987Z,0.00
2019-05-13T02:06:30.007Z,0.00
2019-05-13T02:07:29.962Z,0.00
2019-05-13T02:08:29.970Z,0.00
2019-05-13T02:09:29.939Z,0.00
2019-05-13T02:10:29.927Z,0.00
2019-05-13T02:11:29.947Z,0.00
2019-05-13T02:12:29.907Z,0.00
2019-05-13T02:13:29.927Z,0.00
2019-05-13T02:14:29.877Z,0.00
2019-05-13T02:15:29.882Z,0.00
2019-05-13T02:16:29.861Z,0.00
2019-05-13T02:17:29.861Z,0.00
2019-05-13T02:18:29.859Z,0.00
2019-05-13T02:19:29.835Z,0.00
2019-05-13T02:20:29.834Z,0.00
2019-05-13T02:21:29.816Z,0.00
2019-05-13T02:22:29.797Z,0.00
2019-05-13T02:23:29.819Z,0.00
2019-05-13T02:24:29.778Z,0.00
2019-05-13T02:25:29.780Z,0.00
2019-05-13T02:26:29.788Z,0.00
2019-05-13T02:27:29.743Z,0.00
2019-05-13T02:28:29.762Z,0.00
2019-05-13T02:29:29.726Z,0.00
2019-05-13T02:30:29.714Z,0.00
2019-05-13T02:31:41.349Z,0.00
2019-05-13T02:32:32.966Z,0.00
2019-05-13T02:33:33.542Z,0.00
2019-05-13T02:34:32.155Z,0.00
2019-05-13T02:35:32.465Z,0.00
2019-05-13T02:36:32.721Z,0.00
2019-05-13T02:37:33.896Z,0.00
2019-05-13T02:38:31.786Z,0.00
2019-05-13T02:39:32.875Z,0.00
2019-05-13T02:40:32.465Z,0.00
2019-05-13T02:41:29.605Z,0.00
2019-05-13T02:42:32.525Z,0.00
2019-05-13T02:43:32.967Z,0.00
2019-05-13T02:44:32.957Z,0.00
2019-05-13T02:45:29.555Z,0.00
2019-05-13T02:46:29.546Z,0.00
2019-05-13T02:47:32.854Z,0.00
2019-05-13T02:48:32.615Z,0.00
2019-05-13T02:49:32.480Z,0.00
2019-05-13T02:50:29.536Z,0.00
2019-05-13T02:51:29.489Z,0.00
2019-05-13T02:52:33.188Z,0.00
2019-05-13T02:53:29.475Z,0.00
2019-05-13T02:54:29.492Z,0.00
2019-05-13T02:55:32.686Z,0.00
2019-05-13T02:56:29.437Z,0.00
2019-05-13T02:57:32.649Z,0.00
2019-05-13T02:59:33.469Z,0.00
2019-05-13T03:00:32.609Z,0.00
2019-05-13T03:02:32.717Z,0.00
2019-05-13T03:03:32.428Z,0.00
2019-05-13T03:04:32.308Z,0.00
2019-05-13T03:05:31.928Z,0.00
2019-05-13T03:06:32.799Z,0.00
2019-05-13T03:07:29.315Z,0.00
2019-05-13T03:08:46.173Z,0.00
2019-05-13T03:09:32.587Z,0.00
2019-05-13T03:10:29.286Z,0.00
2019-05-13T03:11:29.286Z,5.62
2019-05-13T03:12:31.991Z,5.62
2019-05-13T03:13:32.281Z,5.62
2019-05-13T03:14:32.050Z,5.62
2019-05-13T03:15:32.458Z,5.62
2019-05-13T03:16:32.235Z,5.62
2019-05-13T03:17:32.408Z,5.62
2019-05-13T03:18:33.086Z,5.62
2019-05-13T03:19:32.941Z,5.62
2019-05-13T03:21:32.652Z,11.25
2019-05-13T03:22:31.840Z,11.25
2019-05-13T03:23:32.413Z,11.25
2019-05-13T03:25:33.034Z,11.25
2019-05-13T03:26:52.937Z,11.25
2019-05-13T03:27:33.308Z,16.88
2019-05-13T03:28:29.113Z,16.88
2019-05-13T03:29:32.136Z,16.88
2019-05-13T03:30:34.638Z,16.88
2019-05-13T03:31:35.552Z,16.88
2019-05-13T03:32:41.820Z,16.88
2019-05-13T03:33:35.877Z,22.50
2019-05-13T03:34:35.602Z,22.50
2019-05-13T03:35:36.006Z,22.50
2019-05-13T03:36:35.763Z,22.50
2019-05-13T03:37:34.488Z,22.50
2019-05-13T03:38:29.012Z,22.50
2019-05-13T03:39:43.178Z,28.12
2019-05-13T03:40:28.983Z,28.12
2019-05-13T03:41:28.971Z,28.12
2019-05-13T03:42:37.830Z,28.12
2019-05-13T03:43:32.256Z,28.12
2019-05-13T03:44:32.226Z,28.12
2019-05-13T03:45:28.945Z,33.75
2019-05-13T03:46:28.931Z,33.75
2019-05-13T03:47:28.882Z,33.75
2019-05-13T03:48:28.881Z,33.75
2019-05-13T03:49:28.885Z,33.75
2019-05-13T03:50:31.510Z,39.38
2019-05-13T03:51:32.682Z,39.38
2019-05-13T03:52:28.847Z,39.38
2019-05-13T03:53:28.846Z,39.38
2019-05-13T03:54:37.858Z,39.38
2019-05-13T03:55:28.818Z,39.38
2019-05-13T03:56:28.813Z,45.00
2019-05-13T03:57:28.789Z,45.00
2019-05-13T03:58:32.158Z,45.00
2019-05-13T03:59:28.794Z,45.00
2019-05-13T04:00:32.064Z,45.00
2019-05-13T04:01:32.277Z,45.00
2019-05-13T04:02:28.720Z,50.62
2019-05-13T04:03:28.734Z,50.62
2019-05-13T04:04:32.157Z,50.62
2019-05-13T04:05:28.714Z,50.62
2019-05-13T04:06:28.690Z,50.62
2019-05-13T04:07:28.691Z,50.62
2019-05-13T04:08:28.683Z,56.25
2019-05-13T04:09:32.521Z,56.25
2019-05-13T04:10:33.114Z,56.25
2019-05-13T04:11:28.646Z,56.25
2019-05-13T04:12:28.757Z,56.25
2019-05-13T04:13:28.615Z,56.25
2019-05-13T04:14:28.607Z,61.88
2019-05-13T04:15:31.825Z,61.88
2019-05-13T04:16:28.582Z,61.88
2019-05-13T04:17:31.885Z,61.88
2019-05-13T04:18:28.569Z,61.88
2019-05-13T04:19:28.560Z,61.88
2019-05-13T04:20:28.580Z,67.50
2019-05-13T04:21:28.563Z,67.50
2019-05-13T04:22:28.518Z,67.50
2019-05-13T04:23:28.525Z,67.50
2019-05-13T04:24:28.514Z,67.50
2019-05-13T04:25:28.499Z,67.50
2019-05-13T04:26:28.492Z,67.50
2019-05-13T04:27:28.482Z,73.12
2019-05-13T04:28:28.473Z,73.12
2019-05-13T04:29:28.443Z,73.12
2019-05-13T04:30:28.445Z,73.12
2019-05-13T04:31:28.448Z,73.12
2019-05-13T04:32:29.240Z,78.75
2019-05-13T04:33:28.419Z,78.75
2019-05-13T04:34:28.401Z,78.75
2019-05-13T04:35:28.407Z,78.75
2019-05-13T04:36:28.415Z,78.75
2019-05-13T04:37:28.370Z,78.75
2019-05-13T04:38:28.372Z,84.38
2019-05-13T04:39:41.882Z,84.38
2019-05-13T04:40:29.339Z,84.38
2019-05-13T04:41:28.353Z,84.38
2019-05-13T04:42:28.313Z,84.38
2019-05-13T04:43:31.653Z,90.00
2019-05-13T04:44:32.045Z,90.00
2019-05-13T04:45:28.283Z,90.00
2019-05-13T04:46:28.334Z,90.00
2019-05-13T04:47:28.259Z,90.00
2019-05-13T04:48:28.273Z,90.00
2019-05-13T04:49:28.244Z,90.00
2019-05-13T04:50:28.242Z,95.62
2019-05-13T04:51:28.247Z,95.62
2019-05-13T04:52:28.206Z,95.62
2019-05-13T04:53:28.198Z,95.62
2019-05-13T04:54:28.193Z,95.62
2019-05-13T04:55:28.204Z,95.62
2019-05-13T04:56:28.208Z,101.25
2019-05-13T04:57:28.158Z,106.88
2019-05-13T04:58:28.163Z,106.88
2019-05-13T05:00:32.176Z,123.75
2019-05-13T05:01:55.345Z,135.00
2019-05-13T05:02:42.765Z,140.62
2019-05-13T05:03:35.146Z,146.25
2019-05-13T05:04:34.004Z,146.25
2019-05-13T05:05:29.073Z,157.50
2019-05-13T05:06:28.081Z,180.00
2019-05-13T05:07:28.075Z,196.88
2019-05-13T05:08:28.031Z,191.25
2019-05-13T05:09:28.019Z,168.75
2019-05-13T05:10:34.740Z,163.12
2019-05-13T05:11:31.917Z,135.00
2019-05-13T05:12:28.012Z,129.38
2019-05-13T05:13:27.988Z,135.00
2019-05-13T05:14:27.982Z,135.00
2019-05-13T05:15:27.984Z,135.00
2019-05-13T05:16:27.950Z,123.75
2019-05-13T05:17:27.986Z,123.75
2019-05-13T05:18:27.945Z,123.75
2019-05-13T05:19:27.931Z,118.12
2019-05-13T05:21:29.068Z,118.12
2019-05-13T05:22:27.898Z,118.12
2019-05-13T05:24:38.106Z,118.12
2019-05-13T05:25:38.052Z,118.12
2019-05-13T05:26:38.040Z,118.12
2019-05-13T05:27:38.386Z,118.12
2019-05-13T05:28:38.025Z,123.75
2019-05-13T05:29:38.050Z,123.75
2019-05-13T05:30:38.049Z,123.75
2019-05-13T05:31:38.011Z,123.75
2019-05-13T05:32:38.010Z,123.75
2019-05-13T05:33:37.970Z,123.75
2019-05-13T05:34:37.961Z,123.75
2019-05-13T05:35:37.963Z,123.75
2019-05-13T05:36:37.931Z,123.75
2019-05-13T05:37:38.383Z,123.75
2019-05-13T05:38:37.920Z,129.38
2019-05-13T05:39:37.918Z,129.38
2019-05-13T05:40:37.952Z,129.38
2019-05-13T05:41:37.898Z,129.38
2019-05-13T05:42:37.904Z,129.38
2019-05-13T05:43:37.866Z,129.38
2019-05-13T05:44:37.854Z,129.38
2019-05-13T05:45:37.839Z,123.75
2019-05-13T05:46:37.827Z,123.75
2019-05-13T05:47:37.853Z,123.75
2019-05-13T05:48:37.834Z,129.38
2019-05-13T05:49:37.805Z,129.38
2019-05-13T05:50:37.791Z,129.38
2019-05-13T05:51:37.786Z,129.38
2019-05-13T05:52:37.770Z,129.38
2019-05-13T05:53:37.779Z,129.38
2019-05-13T05:54:37.751Z,129.38
2019-05-13T05:55:37.744Z,129.38
2019-05-13T05:56:37.731Z,129.38
2019-05-13T05:57:37.720Z,129.38
2019-05-13T05:58:37.729Z,129.38
2019-05-13T05:59:37.689Z,129.38
2019-05-13T06:00:37.693Z,129.38
2019-05-13T06:01:37.672Z,129.38
2019-05-13T06:02:37.688Z,129.38
2019-05-13T06:03:37.673Z,129.38
2019-05-13T06:04:37.651Z,135.00
2019-05-13T06:05:37.641Z,135.00
2019-05-13T06:06:37.644Z,135.00
2019-05-13T06:07:37.613Z,135.00
2019-05-13T06:08:37.641Z,135.00
2019-05-13T06:09:37.641Z,135.00
2019-05-13T06:10:49.127Z,135.00
2019-05-13T06:11:38.567Z,135.00
2019-05-13T06:12:37.563Z,135.00
2019-05-13T06:13:37.632Z,135.00
2019-05-13T06:14:37.563Z,135.00
2019-05-13T06:15:37.528Z,135.00
2019-05-13T06:16:37.531Z,135.00
2019-05-13T06:17:37.520Z,135.00
2019-05-13T06:18:37.608Z,140.62
2019-05-13T06:19:37.531Z,140.62
2019-05-13T06:20:37.487Z,140.62
2019-05-13T06:21:41.889Z,140.62
2019-05-13T06:22:37.495Z,140.62
2019-05-13T06:23:41.869Z,140.62
2019-05-13T06:24:37.428Z,140.62
2019-05-13T06:25:37.444Z,140.62
2019-05-13T06:27:38.657Z,140.62
2019-05-13T06:28:58.478Z,140.62
2019-05-13T06:29:58.402Z,140.62
2019-05-13T06:30:37.408Z,140.62
2019-05-13T06:32:38.548Z,140.62
2019-05-13T06:33:37.355Z,140.62
2019-05-13T06:34:37.316Z,140.62
2019-05-13T06:35:37.314Z,140.62
2019-05-13T06:37:38.494Z,146.25
2019-05-13T06:38:58.375Z,146.25
2019-05-13T06:39:37.306Z,146.25
2019-05-13T06:40:37.296Z,140.62
2019-05-13T06:41:37.300Z,146.25
2019-05-13T06:42:37.263Z,146.25
2019-05-13T06:43:41.848Z,146.25
2019-05-13T06:44:37.206Z,146.25
2019-05-13T06:45:37.246Z,146.25
2019-05-13T06:46:37.205Z,146.25
2019-05-13T06:47:37.190Z,146.25
2019-05-13T06:48:37.190Z,146.25
2019-05-13T06:49:37.261Z,146.25
2019-05-13T06:50:37.182Z,146.25
2019-05-13T06:51:37.138Z,146.25
2019-05-13T06:54:59.153Z,146.25
2019-05-13T06:55:37.092Z,146.25
2019-05-13T06:56:39.086Z,146.25
2019-05-13T06:58:38.254Z,146.25
2019-05-13T06:59:37.080Z,146.25
2019-05-13T07:00:58.703Z,146.25
2019-05-13T07:01:37.026Z,146.25
2019-05-13T07:02:37.032Z,146.25
2019-05-13T07:03:41.793Z,146.25
2019-05-13T07:04:37.040Z,146.25
2019-05-13T07:06:38.169Z,146.25
2019-05-13T07:07:36.974Z,146.25
2019-05-13T07:08:36.953Z,146.25
2019-05-13T07:09:37.021Z,146.25
2019-05-13T07:10:41.272Z,146.25
2019-05-13T07:11:37.008Z,146.25
2019-05-13T07:12:36.964Z,146.25
2019-05-13T07:13:36.901Z,146.25
2019-05-13T07:14:41.159Z,146.25
2019-05-13T07:17:38.043Z,146.25
2019-05-13T07:18:57.885Z,146.25
2019-05-13T07:19:41.241Z,146.25
2019-05-13T07:20:38.829Z,146.25
2019-05-13T07:21:41.704Z,146.25
2019-05-13T07:22:38.810Z,146.25
2019-05-13T07:23:36.793Z,146.25
2019-05-13T07:24:36.805Z,151.88
2019-05-13T07:25:36.807Z,151.88
2019-05-13T07:26:36.751Z,151.88
2019-05-13T07:28:37.907Z,151.88
2019-05-13T07:29:36.771Z,151.88
2019-05-13T07:30:36.718Z,151.88
2019-05-13T07:31:36.721Z,151.88
2019-05-13T07:33:38.014Z,151.88
2019-05-13T07:34:57.707Z,151.88
2019-05-13T07:35:38.026Z,151.88
2019-05-13T07:36:36.721Z,151.88
2019-05-13T07:38:37.845Z,151.88
2019-05-13T07:40:46.759Z,151.88
2019-05-13T07:42:07.765Z,151.88
2019-05-13T07:42:46.746Z,151.88
2019-05-13T07:43:46.726Z,151.88
2019-05-13T07:44:46.742Z,151.88
2019-05-13T07:45:51.265Z,151.88
2019-05-13T07:46:46.719Z,151.88
2019-05-13T07:47:48.797Z,151.88
2019-05-13T07:48:46.680Z,151.88
2019-05-13T07:49:51.372Z,151.88
2019-05-13T07:50:59.003Z,151.88
2019-05-13T07:51:47.662Z,151.88
2019-05-13T07:52:46.659Z,157.50
2019-05-13T07:53:46.636Z,157.50
2019-05-13T07:54:54.914Z,157.50
2019-05-13T07:55:46.674Z,157.50
2019-05-13T07:56:46.610Z,157.50
2019-05-13T07:57:46.653Z,151.88
2019-05-13T07:58:46.691Z,151.88
2019-05-13T07:59:46.552Z,157.50
2019-05-13T08:00:46.629Z,157.50
2019-05-13T08:01:46.621Z,157.50
2019-05-13T08:02:46.651Z,157.50
2019-05-13T08:03:46.540Z,157.50
2019-05-13T08:04:49.408Z,157.50
2019-05-13T08:05:46.552Z,157.50
2019-05-13T08:06:46.478Z,157.50
2019-05-13T08:08:47.648Z,157.50
2019-05-13T08:09:46.466Z,157.50
2019-05-13T08:10:46.608Z,157.50
2019-05-13T08:12:04.321Z,163.12
2019-05-13T08:12:47.416Z,163.12
2019-05-13T08:13:46.416Z,163.12
2019-05-13T08:14:46.404Z,163.12
2019-05-13T08:15:46.511Z,168.75
2019-05-13T08:16:46.400Z,180.00
2019-05-13T08:17:47.722Z,185.62
2019-05-13T08:18:46.354Z,174.38
2019-05-13T08:19:55.764Z,168.75
2019-05-13T08:20:46.416Z,163.12
2019-05-13T08:21:46.340Z,135.00
2019-05-13T08:22:51.845Z,129.38
2019-05-13T08:23:46.395Z,151.88
2019-05-13T08:24:46.294Z,180.00
2019-05-13T08:25:46.331Z,146.25
2019-05-13T08:27:47.458Z,196.88
2019-05-13T08:29:00.056Z,208.12
2019-05-13T08:30:08.252Z,191.25
2019-05-13T08:31:57.922Z,191.25
2019-05-13T08:32:57.877Z,196.88
2019-05-13T08:33:57.885Z,202.50
2019-05-13T08:35:01.430Z,202.50
2019-05-13T08:36:01.114Z,236.25
2019-05-13T08:36:57.828Z,247.50
2019-05-13T08:37:57.813Z,241.88
2019-05-13T08:38:57.863Z,196.88
2019-05-13T08:39:57.844Z,208.12
2019-05-13T08:41:01.895Z,191.25
2019-05-13T08:42:11.767Z,191.25
2019-05-13T08:43:01.457Z,191.25
2019-05-13T08:44:01.750Z,196.88
2019-05-13T08:44:57.793Z,202.50
2019-05-13T08:45:57.770Z,168.75
2019-05-13T08:46:59.315Z,174.38
2019-05-13T08:47:57.721Z,180.00
2019-05-13T08:49:06.763Z,185.62
2019-05-13T08:50:00.730Z,225.00
2019-05-13T08:50:58.853Z,236.25
2019-05-13T08:52:06.021Z,241.88
2019-05-13T08:52:57.651Z,247.50
2019-05-13T08:53:57.656Z,253.12
2019-05-13T08:54:57.639Z,270.00
2019-05-13T08:55:57.628Z,292.50
2019-05-13T08:56:57.641Z,315.00
2019-05-13T08:57:57.639Z,320.62
2019-05-13T08:58:57.633Z,315.00
2019-05-13T08:59:57.585Z,292.50
2019-05-13T09:00:59.129Z,264.38
2019-05-13T09:01:59.351Z,253.12
2019-05-13T09:04:01.870Z,230.62
2019-05-13T09:08:08.567Z,236.25
2019-05-13T09:09:08.570Z,225.00
2019-05-13T09:10:08.618Z,219.38
2019-05-13T09:11:08.595Z,180.00
2019-05-13T09:12:11.624Z,185.62
2019-05-13T09:13:08.515Z,236.25
2019-05-13T09:14:08.528Z,258.75
2019-05-13T09:15:08.536Z,275.62
2019-05-13T09:16:08.524Z,253.12
2019-05-13T09:18:11.443Z,286.88
2019-05-13T09:19:08.469Z,275.62
2019-05-13T09:20:08.457Z,241.88
2019-05-13T09:21:11.648Z,286.88
2019-05-13T09:23:11.513Z,360.00
2019-05-13T09:24:36.628Z,371.25
2019-05-13T09:26:42.134Z,393.75
2019-05-13T09:27:19.501Z,433.12
2019-05-13T09:28:21.767Z,466.88
2019-05-13T09:29:19.466Z,483.75
2019-05-13T09:30:22.138Z,472.50
2019-05-13T09:31:22.089Z,455.62
2019-05-13T09:32:21.572Z,461.25
2019-05-13T09:33:21.757Z,461.25
2019-05-13T09:34:21.930Z,455.62
2019-05-13T09:35:22.208Z,461.25
2019-05-13T09:36:22.407Z,489.38
2019-05-13T09:38:22.325Z,540.00
2019-05-13T09:39:21.597Z,562.50
2019-05-13T09:40:22.185Z,545.62
2019-05-13T09:41:21.574Z,489.38
2019-05-13T09:42:21.487Z,455.62
2019-05-13T09:43:22.182Z,551.25
2019-05-13T09:44:21.629Z,601.88
2019-05-13T09:45:21.450Z,607.50
2019-05-13T09:46:22.625Z,590.62
2019-05-13T09:47:21.558Z,534.38
2019-05-13T09:52:42.853Z,433.12
2019-05-13T09:53:41.679Z,455.62
2019-05-13T09:55:41.679Z,489.38
2019-05-13T09:56:42.656Z,511.88
2019-05-13T09:57:41.513Z,551.25
2019-05-13T09:58:42.072Z,568.12
2019-05-13T09:59:42.173Z,590.62
2019-05-13T10:00:42.093Z,596.25
2019-05-13T10:01:42.766Z,601.88
2019-05-13T10:02:42.657Z,596.25
2019-05-13T10:03:53.716Z,556.88
2019-05-13T10:05:43.605Z,511.88
2019-05-13T10:08:04.323Z,511.88
2019-05-13T10:09:02.408Z,506.25
2019-05-13T10:09:42.938Z,478.12
2019-05-13T10:10:47.539Z,450.00
2019-05-13T10:11:40.525Z,405.00
2019-05-13T10:12:44.468Z,303.75
2019-05-13T10:13:40.529Z,275.62
2019-05-13T10:21:52.479Z,343.12
2019-05-13T10:22:52.524Z,331.88
2019-05-13T10:23:51.212Z,337.50
2019-05-13T10:24:51.664Z,348.75
2019-05-13T10:25:52.153Z,388.12
2019-05-13T10:26:51.585Z,376.88
2019-05-13T10:27:51.158Z,371.25
2019-05-13T10:28:51.161Z,371.25
2019-05-13T10:29:51.848Z,371.25
2019-05-13T10:30:53.149Z,365.62
2019-05-13T10:31:51.504Z,360.00
2019-05-13T10:32:52.720Z,354.38
2019-05-13T10:34:06.011Z,365.62
2019-05-13T10:34:51.975Z,371.25
2019-05-13T10:35:52.435Z,376.88
2019-05-13T10:36:51.461Z,388.12
2019-05-13T10:37:52.312Z,399.38
2019-05-13T10:38:52.216Z,421.88
2019-05-13T10:39:51.785Z,427.50
2019-05-13T10:40:51.911Z,455.62
2019-05-13T10:41:52.370Z,450.00
2019-05-13T10:42:52.430Z,466.88
2019-05-13T10:43:52.066Z,466.88
2019-05-13T10:44:52.328Z,461.25
2019-05-13T10:45:52.250Z,466.88
2019-05-13T10:46:52.267Z,433.12
2019-05-13T10:47:51.927Z,444.38
2019-05-13T10:48:52.676Z,450.00
2019-05-13T10:49:52.325Z,461.25
2019-05-13T10:50:52.984Z,478.12
2019-05-13T10:51:52.603Z,500.62
2019-05-13T10:52:52.173Z,511.88
2019-05-13T10:53:53.588Z,506.25
2019-05-13T10:54:52.668Z,478.12
2019-05-13T10:55:52.217Z,461.25
2019-05-13T10:56:53.139Z,472.50
2019-05-13T10:57:51.866Z,483.75
2019-05-13T10:58:53.389Z,506.25
2019-05-13T10:59:52.505Z,517.50
2019-05-13T11:00:51.751Z,534.38
2019-05-13T11:01:50.806Z,585.00
2019-05-13T11:02:50.811Z,697.50
2019-05-13T11:03:52.402Z,652.50
2019-05-13T11:04:52.561Z,646.88
2019-05-13T11:05:52.548Z,725.62
2019-05-13T11:06:52.435Z,556.88
2019-05-13T11:07:51.730Z,658.12
2019-05-13T11:08:53.036Z,2784.38
2019-05-13T11:09:52.666Z,1175.62
2019-05-13T11:10:53.104Z,3268.12
2019-05-13T11:11:52.823Z,4106.25
2019-05-13T11:12:52.057Z,1080.00
2019-05-13T11:13:58.783Z,1957.50
2019-05-13T11:14:53.980Z,894.38
2019-05-13T11:15:57.541Z,804.38
2019-05-13T11:16:52.449Z,759.38
2019-05-13T11:17:51.890Z,573.75
2019-05-13T11:18:51.911Z,472.50
2019-05-13T11:19:50.626Z,438.75
2019-05-13T11:20:50.629Z,450.00
2019-05-13T11:21:51.014Z,472.50
2019-05-13T11:22:52.161Z,506.25
2019-05-13T11:23:51.834Z,551.25
2019-05-13T11:24:51.841Z,579.38
2019-05-13T11:25:52.282Z,568.12
2019-05-13T11:26:52.969Z,534.38
2019-05-13T11:27:52.401Z,534.38
2019-05-13T11:28:52.471Z,556.88
2019-05-13T11:29:52.384Z,585.00
2019-05-13T11:30:52.008Z,646.88
2019-05-13T11:31:52.412Z,2205.00
2019-05-13T11:32:51.822Z,3003.75
2019-05-13T11:33:51.976Z,3431.25
2019-05-13T11:34:53.110Z,2818.12
2019-05-13T11:35:52.365Z,1541.25
2019-05-13T11:36:53.346Z,4134.38
2019-05-13T11:37:52.158Z,4128.75
2019-05-13T11:38:53.069Z,4100.62
2019-05-13T11:39:51.627Z,3960.00
2019-05-13T11:40:52.332Z,4095.00
2019-05-13T11:41:50.380Z,4140.00
2019-05-13T11:42:52.663Z,4100.62
2019-05-13T11:44:10.984Z,3915.00
2019-05-13T11:44:52.728Z,3847.50
2019-05-13T11:45:50.894Z,3825.00
2019-05-13T11:46:52.969Z,3718.12
2019-05-13T11:47:52.220Z,3825.00
2019-05-13T11:48:51.917Z,3982.50
2019-05-13T11:49:52.164Z,4162.50
2019-05-13T11:50:53.635Z,601.88
2019-05-13T11:51:51.984Z,466.88
2019-05-13T11:52:52.419Z,433.12
2019-05-13T11:53:50.551Z,472.50
2019-05-13T11:54:53.178Z,2694.38
2019-05-13T11:55:52.319Z,4590.00
2019-05-13T11:57:00.834Z,4421.25
2019-05-13T11:57:53.095Z,4381.88
2019-05-13T11:58:53.416Z,4314.38
2019-05-13T11:59:52.697Z,4162.50
2019-05-13T12:00:53.171Z,3931.88
2019-05-13T12:01:53.895Z,3723.75
2019-05-13T12:02:54.365Z,3341.25
2019-05-13T12:03:53.177Z,3240.00
2019-05-13T12:04:54.024Z,3391.88
2019-05-13T12:05:53.413Z,3757.50
2019-05-13T12:06:54.295Z,4156.88
2019-05-13T12:07:53.487Z,4359.38
2019-05-13T12:08:53.993Z,4404.38
2019-05-13T12:09:51.804Z,4297.50
2019-05-13T12:10:51.854Z,4207.50
2019-05-13T12:11:50.074Z,2565.00
2019-05-13T12:12:50.063Z,3746.25
2019-05-13T12:13:52.885Z,2221.88
2019-05-13T12:15:20.242Z,1051.88
2019-05-13T12:15:53.942Z,894.38
2019-05-13T12:16:50.047Z,4674.38
2019-05-13T12:17:52.361Z,4449.38
2019-05-13T12:18:52.499Z,1603.12
2019-05-13T12:19:50.023Z,3971.25
2019-05-13T12:20:53.607Z,4618.12
2019-05-13T12:21:53.681Z,1136.25
2019-05-13T12:22:52.037Z,1906.88
2019-05-13T12:23:52.460Z,3836.25
2019-05-13T12:24:51.545Z,3656.25
2019-05-13T12:25:52.590Z,2503.12
2019-05-13T12:26:53.306Z,1479.38
2019-05-13T12:27:51.934Z,1417.50
2019-05-13T12:28:53.524Z,1389.38
2019-05-13T12:29:52.856Z,1417.50
2019-05-13T12:30:52.802Z,1479.38
2019-05-13T12:31:52.729Z,1518.75
2019-05-13T12:32:51.871Z,1473.75
2019-05-13T12:33:52.209Z,1355.62
2019-05-13T12:34:52.737Z,787.50
2019-05-13T12:35:53.003Z,534.38
2019-05-13T12:36:49.837Z,483.75
2019-05-13T12:37:53.074Z,478.12
2019-05-13T12:38:53.703Z,466.88
2019-05-13T12:39:53.025Z,472.50
2019-05-13T12:40:52.701Z,472.50
2019-05-13T12:41:49.790Z,489.38
2019-05-13T12:42:53.658Z,1153.12
2019-05-13T12:43:53.603Z,1164.38
2019-05-13T12:45:04.024Z,1153.12
2019-05-13T12:45:53.366Z,1141.88
2019-05-13T12:46:51.487Z,1141.88
2019-05-13T12:47:50.299Z,1170.00
2019-05-13T12:48:49.717Z,1237.50
2019-05-13T12:49:49.931Z,1338.75
2019-05-13T12:50:52.951Z,877.50
2019-05-13T12:51:51.734Z,888.75
2019-05-13T12:52:51.466Z,1350.00
2019-05-13T12:53:52.440Z,714.38
2019-05-13T12:54:52.175Z,601.88
2019-05-13T12:55:55.739Z,478.12
2019-05-13T12:56:52.479Z,416.25
2019-05-13T12:57:52.081Z,365.62
2019-05-13T12:58:52.020Z,354.38
2019-05-13T12:59:49.634Z,388.12
2019-05-13T13:00:52.935Z,601.88
2019-05-13T13:01:51.894Z,573.75
2019-05-13T13:02:51.809Z,635.62
2019-05-13T13:03:49.607Z,691.88
2019-05-13T13:05:09.202Z,714.38
2019-05-13T13:05:50.606Z,562.50
2019-05-13T13:06:52.768Z,489.38
2019-05-13T13:08:13.519Z,472.50
2019-05-13T13:08:50.907Z,461.25
2019-05-13T13:09:53.109Z,478.12
2019-05-13T13:10:53.279Z,506.25
2019-05-13T13:11:53.934Z,540.00
2019-05-13T13:12:54.567Z,562.50
2019-05-13T13:14:54.444Z,1265.62
2019-05-13T13:15:52.459Z,1276.88
2019-05-13T13:16:53.622Z,624.38
2019-05-13T13:17:53.642Z,1395.00
2019-05-13T13:18:52.114Z,1440.00
2019-05-13T13:19:50.242Z,1400.62
2019-05-13T13:20:57.944Z,551.25
2019-05-13T13:21:53.374Z,444.38
2019-05-13T13:22:49.361Z,365.62
2019-05-13T13:23:49.357Z,320.62
2019-05-13T13:24:55.737Z,286.88
2019-05-13T13:25:54.216Z,275.62
2019-05-13T13:26:53.426Z,270.00
2019-05-13T13:28:08.622Z,270.00
2019-05-13T13:28:55.105Z,275.62